Terminal Aerodrome Forecast
Issued by NWS

Home | Current Version | Previous Version | Text Only | Print | Product List | Glossary On
Versions: 1 2 3 4 5 6 7 8 9 10 11 12
467
FTUS42 TJSJ 071251 AAA
TAFJPS
TAF AMD
TJPS 071251Z 0713/0812 10007KT P6SM VCSH SCT025 SCT060
      TEMPO 0713/0714 RA BKN020
     FM071400 15010G18KT P6SM VCSH SCT030 BKN050
     FM072330 05007KT P6SM FEW030 SCT060=

USA.gov is the U.S. government's official web portal to all federal, state and local government web resources and services.